createdAt,value
2022-12-09T00:00:30.262Z,100869.66
2022-12-09T00:03:23.530Z,100876.59
2022-12-09T00:06:10.891Z,100789.88
2022-12-09T00:08:58.028Z,100884.41
2022-12-09T00:11:45.827Z,100883.53
2022-12-09T00:14:32.775Z,100884.41
2022-12-09T00:17:19.738Z,100881.78
2022-12-09T00:20:07.435Z,100844.50
2022-12-09T00:22:54.773Z,100837.56
2022-12-09T00:25:41.694Z,100876.59
2022-12-09T00:28:28.504Z,100882.63
2022-12-09T00:31:19.616Z,100882.63
2022-12-09T00:34:06.937Z,100853.13
2022-12-09T00:36:54.527Z,100794.16
2022-12-09T00:39:41.375Z,100884.31
2022-12-09T00:42:28.174Z,100875.66
2022-12-09T00:45:14.986Z,100892.16
2022-12-09T00:48:02.018Z,100896.53
2022-12-09T00:50:48.894Z,100900.88
2022-12-09T00:53:36.298Z,100882.66
2022-12-09T00:56:23.357Z,100893.94
2022-12-09T00:59:10.277Z,100897.38
2022-12-09T01:01:57.099Z,100900.00
2022-12-09T01:04:44.002Z,100900.00
2022-12-09T01:07:31.030Z,100909.63
2022-12-09T01:10:18.250Z,100906.13
2022-12-09T01:13:05.108Z,100902.66
2022-12-09T01:15:53.105Z,100900.06
2022-12-09T01:18:39.885Z,100918.28
2022-12-09T01:21:26.830Z,100917.44
2022-12-09T01:24:13.787Z,100918.25
2022-12-09T01:27:01.329Z,100915.63
2022-12-09T01:29:48.389Z,100909.59
2022-12-09T01:32:35.671Z,100922.63
2022-12-09T01:35:22.887Z,100922.63
2022-12-09T01:38:09.713Z,100920.00
2022-12-09T01:40:57.211Z,100914.75
2022-12-09T01:43:44.037Z,100927.84
2022-12-09T01:46:31.452Z,100926.06
2022-12-09T01:49:18.451Z,100921.72
2022-12-09T01:52:12.037Z,100933.06
2022-12-09T01:55:01.895Z,100937.41
2022-12-09T01:57:49.488Z,100929.56
2022-12-09T02:00:36.983Z,100905.28
2022-12-09T02:03:27.069Z,100942.59
2022-12-09T02:06:14.248Z,100938.25
2022-12-09T02:09:04.338Z,100939.09
2022-12-09T02:12:05.449Z,100946.09
2022-12-09T02:15:20.703Z,100932.19
2022-12-09T02:18:16.958Z,100948.69
2022-12-09T02:21:11.933Z,100940.88
2022-12-09T02:24:13.550Z,100922.63
2022-12-09T02:27:09.972Z,100939.06
2022-12-09T02:30:21.469Z,100950.41
2022-12-09T02:33:34.119Z,100946.06
2022-12-09T02:36:31.567Z,100952.13
2022-12-09T02:39:20.280Z,100952.13
2022-12-09T02:42:08.999Z,100957.38
2022-12-09T02:44:59.522Z,100953.88
2022-12-09T02:47:49.681Z,100930.47
2022-12-09T02:50:42.425Z,100847.19
2022-12-09T02:53:33.715Z,100952.16
2022-12-09T02:56:21.305Z,100918.28
2022-12-09T02:59:09.565Z,100845.41
2022-12-09T03:02:18.558Z,100946.00
2022-12-09T03:05:16.339Z,100896.59
2022-12-09T03:08:31.417Z,100958.22
2022-12-09T03:11:24.953Z,100950.38
2022-12-09T03:14:26.051Z,100953.00
2022-12-09T03:17:25.114Z,100968.66
2022-12-09T03:20:17.372Z,100966.06
2022-12-09T03:23:07.174Z,100970.44
2022-12-09T03:26:00.513Z,100966.03
2022-12-09T03:28:53.409Z,100973.88
2022-12-09T03:31:43.838Z,100939.16
2022-12-09T03:34:36.227Z,100900.16
2022-12-09T03:37:25.577Z,100982.59
2022-12-09T03:40:15.637Z,100982.63
2022-12-09T03:43:18.630Z,100981.72
2022-12-09T03:46:06.488Z,100942.72
2022-12-09T03:48:53.695Z,100983.47
2022-12-09T03:51:51.708Z,100982.59
2022-12-09T03:54:47.229Z,100993.94
2022-12-09T03:57:36.678Z,100994.78
2022-12-09T04:00:25.151Z,100992.16
2022-12-09T04:03:12.686Z,100997.44
2022-12-09T04:05:59.879Z,100994.78
2022-12-09T04:08:47.158Z,100990.44
2022-12-09T04:11:34.400Z,100924.50
2022-12-09T04:14:21.324Z,100994.78
2022-12-09T04:17:08.410Z,101002.59
2022-12-09T04:19:55.238Z,101001.75
2022-12-09T04:22:42.143Z,100951.44
2022-12-09T04:25:29.740Z,100991.34
2022-12-09T04:28:17.236Z,100994.78
2022-12-09T04:31:07.623Z,100997.38
2022-12-09T04:33:54.397Z,100999.16
2022-12-09T04:36:41.726Z,100944.47
2022-12-09T04:39:29.220Z,100972.22
2022-12-09T04:42:16.386Z,100987.81
2022-12-09T04:45:03.223Z,101001.75
2022-12-09T04:47:50.252Z,101013.97
2022-12-09T04:50:37.657Z,101005.31
2022-12-09T04:53:24.919Z,101014.88
2022-12-09T04:56:22.873Z,101015.78
2022-12-09T04:59:10.521Z,101020.13
2022-12-09T05:01:57.930Z,101024.47
2022-12-09T05:04:44.828Z,101019.28
2022-12-09T05:07:32.306Z,101022.75
2022-12-09T05:10:20.083Z,101016.63
2022-12-09T05:13:07.223Z,101016.63
2022-12-09T05:15:54.092Z,101007.94
2022-12-09T05:18:41.192Z,101007.97
2022-12-09T05:21:34.580Z,101010.56
2022-12-09T05:24:24.980Z,101007.06
2022-12-09T05:27:12.616Z,101011.44
2022-12-09T05:30:00.043Z,101014.06
2022-12-09T05:32:46.966Z,101015.78
2022-12-09T05:35:39.105Z,101016.69
2022-12-09T05:38:32.349Z,101027.16
2022-12-09T05:41:20.435Z,101029.78
2022-12-09T05:44:07.622Z,101005.44
2022-12-09T05:46:54.913Z,101034.09
2022-12-09T05:49:42.304Z,101017.56
2022-12-09T05:52:29.640Z,101037.59
2022-12-09T05:55:16.897Z,101044.56
2022-12-09T05:58:04.135Z,101024.53
2022-12-09T06:00:50.972Z,100993.34
2022-12-09T06:03:38.016Z,101038.44
2022-12-09T06:06:31.411Z,101024.56
2022-12-09T06:09:20.320Z,101035.81
2022-12-09T06:12:07.291Z,101027.97
2022-12-09T06:14:54.400Z,101043.66
2022-12-09T06:17:41.692Z,101034.09
2022-12-09T06:20:28.732Z,101040.22
2022-12-09T06:23:15.558Z,101018.47
2022-12-09T06:26:04.907Z,101001.16
2022-12-09T06:28:52.219Z,100963.00
2022-12-09T06:31:39.517Z,101018.53
2022-12-09T06:34:27.117Z,100930.84
2022-12-09T06:37:14.346Z,101041.13
2022-12-09T06:40:01.404Z,100939.56
2022-12-09T06:42:48.334Z,101026.41
2022-12-09T06:45:35.402Z,101045.50
2022-12-09T06:48:22.457Z,101020.34
2022-12-09T06:51:11.392Z,101054.19
2022-12-09T06:53:58.708Z,101015.16
2022-12-09T06:56:41.881Z,101047.28
2022-12-09T06:59:30.571Z,100990.00
2022-12-09T07:02:17.879Z,101061.19
2022-12-09T07:05:05.782Z,101056.84
2022-12-09T07:07:53.851Z,101043.81
2022-12-09T07:10:41.522Z,101069.88
2022-12-09T07:13:28.827Z,101064.66
2022-12-09T07:16:15.796Z,101071.69
2022-12-09T07:19:02.691Z,101073.44
2022-12-09T07:21:50.104Z,101042.16
2022-12-09T07:24:37.682Z,100987.41
2022-12-09T07:27:26.249Z,101005.69
2022-12-09T07:30:13.086Z,101065.63
2022-12-09T07:32:59.998Z,101090.00
2022-12-09T07:35:47.203Z,101088.22
2022-12-09T07:38:34.047Z,101048.25
2022-12-09T07:41:29.633Z,101092.59
2022-12-09T07:44:16.874Z,101087.38
2022-12-09T07:47:04.041Z,101085.59
2022-12-09T07:49:51.434Z,101091.72
2022-12-09T07:52:38.445Z,101082.16
2022-12-09T07:55:26.272Z,101077.78
2022-12-09T07:58:13.522Z,101090.84
2022-12-09T08:01:00.521Z,101096.94
2022-12-09T08:03:47.608Z,101048.28
2022-12-09T08:06:37.890Z,101095.22
2022-12-09T08:09:30.357Z,101098.69
2022-12-09T08:12:17.685Z,101087.44
2022-12-09T08:15:04.737Z,101100.47
2022-12-09T08:17:53.087Z,101097.84
2022-12-09T08:20:39.970Z,101104.81
2022-12-09T08:23:27.185Z,101057.91
2022-12-09T08:26:15.481Z,101110.03
2022-12-09T08:29:02.772Z,101031.81
2022-12-09T08:31:49.773Z,101101.31
2022-12-09T08:34:36.703Z,101072.66
2022-12-09T08:37:24.182Z,101094.38
2022-12-09T08:40:11.329Z,101085.66
2022-12-09T08:42:58.697Z,101072.66
2022-12-09T08:45:46.119Z,101098.69
2022-12-09T08:48:33.056Z,101097.88
2022-12-09T08:51:20.309Z,101097.88
2022-12-09T08:54:07.164Z,101100.50
2022-12-09T08:56:55.219Z,101048.34
2022-12-09T08:59:45.334Z,101093.53
2022-12-09T09:02:32.913Z,101104.00
2022-12-09T09:05:20.911Z,101095.28
2022-12-09T09:08:08.259Z,101088.38
2022-12-09T09:10:56.962Z,101102.28
2022-12-09T09:13:44.339Z,101100.53
2022-12-09T09:16:34.012Z,101073.63
2022-12-09T09:19:21.748Z,101057.09
2022-12-09T09:22:09.374Z,101103.13
2022-12-09T09:24:56.289Z,101112.75
2022-12-09T09:27:43.384Z,101110.97
2022-12-09T09:30:30.600Z,101110.13
2022-12-09T09:33:17.811Z,101107.53
2022-12-09T09:36:09.893Z,101111.88
2022-12-09T09:38:57.581Z,101099.72
2022-12-09T09:41:46.398Z,101111.00
2022-12-09T09:44:25.617Z,101108.41
2022-12-09T09:47:14.905Z,101112.78
2022-12-09T09:50:13.710Z,101116.22
2022-12-09T09:53:02.512Z,101102.31
2022-12-09T09:56:17.646Z,101110.13
2022-12-09T09:59:16.131Z,101105.75
2022-12-09T10:02:10.706Z,101112.75
2022-12-09T10:05:06.964Z,101112.75
2022-12-09T10:07:44.727Z,101112.75
2022-12-09T10:11:10.231Z,101119.69
2022-12-09T10:14:03.998Z,101118.78
2022-12-09T10:17:03.466Z,101117.06
2022-12-09T10:19:56.087Z,101124.03
2022-12-09T10:22:50.578Z,101114.44
2022-12-09T10:25:44.898Z,101120.56
2022-12-09T10:28:37.966Z,101107.50
2022-12-09T10:31:25.899Z,101020.59
2022-12-09T10:34:12.877Z,101115.31
2022-12-09T10:37:03.328Z,101111.81
2022-12-09T10:39:50.980Z,101109.19
2022-12-09T10:42:36.728Z,101110.09
2022-12-09T10:45:45.640Z,101103.09
2022-12-09T10:48:53.041Z,101103.09
2022-12-09T11:51:12.335Z,101078.75
2022-12-09T11:54:45.206Z,101025.75
2022-12-09T11:58:10.173Z,101082.19
2022-12-09T12:01:15.309Z,101097.00
2022-12-09T12:04:14.654Z,101042.22
2022-12-09T12:07:43.947Z,101072.63
2022-12-09T12:11:00.211Z,100967.53
2022-12-09T12:14:09.693Z,101090.00
2022-12-09T12:17:28.973Z,101093.47
2022-12-09T12:20:36.134Z,101053.50
2022-12-09T12:23:49.914Z,101062.19
2022-12-09T12:27:15.444Z,101097.00
2022-12-09T12:30:44.962Z,101090.91
2022-12-09T12:34:25.603Z,101090.91
2022-12-09T12:38:17.221Z,101089.16
2022-12-09T12:41:36.021Z,101090.91
2022-12-09T12:45:12.858Z,100999.66
2022-12-09T12:48:31.608Z,101087.41
2022-12-09T12:51:46.397Z,101089.13
2022-12-09T12:54:36.399Z,101094.38
2022-12-09T12:58:07.394Z,101103.94
2022-12-09T13:01:31.578Z,101086.56
2022-12-09T13:04:59.103Z,101106.56
2022-12-09T13:08:16.385Z,101118.78
2022-12-09T13:11:30.874Z,101105.72
2022-12-09T13:14:45.247Z,101084.84
2022-12-09T13:17:55.640Z,101113.53
2022-12-09T13:21:12.560Z,101127.47
2022-12-09T13:24:37.914Z,101119.63
2022-12-09T13:27:53.623Z,101110.94
2022-12-09T13:31:11.603Z,101049.22
2022-12-09T13:34:24.494Z,101104.81
2022-12-09T13:38:03.454Z,101114.38
2022-12-09T13:41:10.170Z,101108.28
2022-12-09T13:44:32.934Z,101115.25
2022-12-09T13:47:48.493Z,101048.28
2022-12-09T13:51:02.805Z,101109.13
2022-12-09T13:54:19.966Z,101106.50
2022-12-09T13:57:52.226Z,101104.78
2022-12-09T14:01:04.751Z,101113.50
2022-12-09T14:04:32.912Z,101028.34
2022-12-09T14:07:54.853Z,101102.19
2022-12-09T14:11:08.587Z,101098.69
2022-12-09T14:14:44.236Z,101093.47
2022-12-09T14:17:50.907Z,101098.69
2022-12-09T14:20:59.571Z,101102.22
2022-12-09T14:24:28.095Z,101112.66
2022-12-09T14:27:44.080Z,101023.19
2022-12-09T14:30:50.793Z,101118.78
2022-12-09T14:34:07.048Z,101130.06
2022-12-09T14:37:28.766Z,101096.16
2022-12-09T14:40:35.463Z,101132.69
2022-12-09T14:44:20.602Z,101129.22
2022-12-09T14:47:48.953Z,101124.84
2022-12-09T14:50:56.400Z,101136.19
2022-12-09T14:54:06.662Z,101031.03
2022-12-09T14:57:17.576Z,101055.38
2022-12-09T15:00:26.597Z,101105.78
2022-12-09T15:03:45.713Z,101140.59
2022-12-09T15:06:52.766Z,101135.41
2022-12-09T15:10:16.330Z,101146.72
2022-12-09T15:13:23.537Z,101146.75
2022-12-09T15:16:19.688Z,101127.63
2022-12-09T15:19:07.545Z,101149.38
2022-12-09T15:22:14.503Z,101155.47
2022-12-09T15:25:21.402Z,101158.97
2022-12-09T15:28:37.063Z,101154.63
2022-12-09T15:31:46.800Z,101156.38
2022-12-09T15:34:53.561Z,101162.44
2022-12-09T15:38:00.499Z,101165.94
2022-12-09T15:41:06.973Z,101162.47
2022-12-09T15:44:17.657Z,101167.72
2022-12-09T15:47:29.509Z,101167.72
2022-12-09T15:50:41.263Z,101056.41
2022-12-09T15:54:03.177Z,101036.41
2022-12-09T15:57:09.867Z,101179.94
2022-12-09T16:00:18.125Z,101081.63
2022-12-09T16:03:26.904Z,101186.00
2022-12-09T16:06:33.712Z,101193.84
2022-12-09T16:09:40.986Z,101200.81
2022-12-09T16:12:50.701Z,101201.69
2022-12-09T16:16:08.754Z,101211.25
2022-12-09T16:19:15.615Z,101206.91
2022-12-09T16:22:45.234Z,101210.41
2022-12-09T16:26:04.892Z,101213.00
2022-12-09T16:29:36.822Z,101207.78
2022-12-09T16:32:45.480Z,101226.91
2022-12-09T16:36:05.143Z,101225.16
2022-12-09T16:39:24.024Z,101222.56
2022-12-09T16:41:50.823Z,101226.88
2022-12-09T16:44:34.628Z,101238.19
2022-12-09T16:47:29.226Z,101230.38
2022-12-09T16:49:57.292Z,101232.97
2022-12-09T16:52:45.398Z,101232.09
2022-12-09T16:55:52.461Z,101235.56
2022-12-09T16:58:39.558Z,101113.66
2022-12-09T17:01:26.749Z,101239.03
2022-12-09T17:04:22.622Z,101241.63
2022-12-09T17:07:09.438Z,101239.00
2022-12-09T17:09:56.187Z,101245.13
2022-12-09T17:12:42.967Z,101245.13
2022-12-09T17:15:34.097Z,101246.00
2022-12-09T17:18:20.847Z,101262.50
2022-12-09T17:21:07.623Z,101273.81
2022-12-09T17:23:55.503Z,101272.94
2022-12-09T17:26:42.318Z,101271.22
2022-12-09T17:29:29.138Z,101266.88
2022-12-09T17:32:15.887Z,101271.22
2022-12-09T17:35:06.216Z,101271.22
2022-12-09T17:37:57.571Z,101267.69
2022-12-09T17:40:44.310Z,101280.75
2022-12-09T17:43:31.103Z,101286.88
2022-12-09T17:46:22.180Z,101278.16
2022-12-09T17:49:08.959Z,101274.72
2022-12-09T17:51:57.073Z,101279.94
2022-12-09T17:54:44.056Z,101279.94
2022-12-09T17:57:30.834Z,101248.56
2022-12-09T18:00:17.605Z,101287.75
2022-12-09T18:03:04.431Z,101266.88
2022-12-09T18:05:51.189Z,101277.31
2022-12-09T18:08:37.934Z,101286.00
2022-12-09T18:11:26.590Z,101294.72
2022-12-09T18:14:14.108Z,101275.53
2022-12-09T18:17:01.218Z,101287.78
2022-12-09T18:19:48.266Z,101217.19
2022-12-09T18:22:35.024Z,101282.56
2022-12-09T18:25:21.894Z,101284.28
2022-12-09T18:28:08.730Z,101272.13
2022-12-09T18:30:58.401Z,101285.16
2022-12-09T18:33:45.523Z,101293.00
2022-12-09T18:36:35.602Z,101285.16
2022-12-09T18:39:22.368Z,101282.56
2022-12-09T18:42:09.136Z,101272.94
2022-12-09T18:44:56.084Z,101287.78
2022-12-09T18:47:42.838Z,101287.75
2022-12-09T18:50:30.508Z,101288.63
2022-12-09T18:53:17.266Z,101300.81
2022-12-09T18:56:04.409Z,101303.41
2022-12-09T18:59:06.627Z,101301.66
2022-12-09T19:01:55.750Z,101294.69
2022-12-09T19:04:45.004Z,101283.38
2022-12-09T19:07:34.086Z,101287.75
2022-12-09T19:10:20.860Z,101292.09
2022-12-09T19:13:07.647Z,101293.81
2022-12-09T19:15:54.444Z,101301.63
2022-12-09T19:18:41.205Z,101277.22
2022-12-09T19:21:32.304Z,101288.56
2022-12-09T19:24:19.414Z,101309.47
2022-12-09T19:27:06.620Z,101316.47
2022-12-09T19:29:53.394Z,101307.75
2022-12-09T19:32:55.452Z,101258.06
2022-12-09T19:35:42.188Z,101326.00
2022-12-09T19:38:28.950Z,101327.75
2022-12-09T19:41:20.190Z,101337.34
2022-12-09T19:44:07.545Z,101345.19
2022-12-09T19:46:55.049Z,101310.34
2022-12-09T19:49:43.149Z,101330.38
2022-12-09T19:52:30.746Z,101326.91
2022-12-09T19:55:17.510Z,101331.25
2022-12-09T19:58:04.309Z,101332.97
2022-12-09T20:00:51.409Z,101326.91
2022-12-09T20:03:38.209Z,101285.94
2022-12-09T20:06:27.792Z,101326.03
2022-12-09T20:09:14.608Z,101326.91
2022-12-09T20:12:02.034Z,101321.69
2022-12-09T20:14:48.813Z,101315.56
2022-12-09T20:17:35.574Z,101300.72
2022-12-09T20:20:22.461Z,101332.06
2022-12-09T20:23:09.226Z,101320.75
2022-12-09T20:25:56.572Z,101308.50
2022-12-09T20:28:43.349Z,101335.50
2022-12-09T20:31:33.298Z,101344.19
2022-12-09T20:34:25.975Z,101338.09
2022-12-09T20:37:12.847Z,101334.59
2022-12-09T20:39:59.601Z,101284.88
2022-12-09T20:42:46.361Z,101357.22
2022-12-09T20:45:33.138Z,101347.59
2022-12-09T20:48:19.957Z,101349.34
2022-12-09T20:51:06.715Z,101359.78
2022-12-09T20:53:54.785Z,101324.94
2022-12-09T20:56:43.229Z,101354.56
2022-12-09T20:59:32.386Z,101360.66
2022-12-09T21:02:19.845Z,101358.94
2022-12-09T21:05:06.621Z,101352.81
2022-12-09T21:07:53.423Z,101304.00
2022-12-09T21:10:40.226Z,101371.97
2022-12-09T21:13:27.001Z,101360.66
2022-12-09T21:16:13.819Z,101313.56
2022-12-09T21:19:00.631Z,101347.56
2022-12-09T21:21:50.700Z,101372.88
2022-12-09T21:24:38.581Z,101329.22
2022-12-09T21:27:26.581Z,101364.16
2022-12-09T21:30:13.358Z,101351.94
2022-12-09T21:33:00.144Z,101361.56
2022-12-09T21:35:26.927Z,101360.69
2022-12-09T21:37:56.203Z,101376.31
2022-12-09T21:40:23.238Z,101375.47
2022-12-09T21:42:50.140Z,101377.19
2022-12-09T21:45:17.006Z,101371.06
2022-12-09T21:47:43.929Z,101380.66
2022-12-09T21:50:10.948Z,101365.81
2022-12-09T21:52:37.741Z,101382.38
2022-12-09T21:55:04.957Z,101371.03
2022-12-09T21:57:34.194Z,101390.22
2022-12-09T22:00:01.060Z,101390.22
2022-12-09T22:02:47.869Z,101396.31
2022-12-09T22:05:34.788Z,101391.94
2022-12-09T22:08:21.640Z,101369.28
2022-12-09T22:11:08.414Z,101397.19
2022-12-09T22:13:55.479Z,101400.66
2022-12-09T22:16:45.328Z,101401.53
2022-12-09T22:19:36.582Z,101402.38
2022-12-09T22:22:23.382Z,101404.97
2022-12-09T22:25:10.154Z,101396.22
2022-12-09T22:27:57.019Z,101418.88
2022-12-09T22:30:43.845Z,101426.69
2022-12-09T22:33:30.651Z,101429.28
2022-12-09T22:36:22.779Z,101436.22
2022-12-09T22:39:10.133Z,101383.88
2022-12-09T22:41:56.881Z,101442.28
2022-12-09T22:44:43.643Z,101423.97
2022-12-09T22:47:30.451Z,101385.53
2022-12-09T22:50:17.258Z,101430.91
2022-12-09T22:53:04.034Z,101431.75
2022-12-09T22:55:50.826Z,101428.25
2022-12-09T22:58:37.652Z,101430.88
2022-12-09T23:01:32.913Z,101426.50
2022-12-09T23:04:20.242Z,101424.72
2022-12-09T23:07:07.600Z,101441.22
2022-12-09T23:09:54.355Z,101414.19
2022-12-09T23:12:41.105Z,101305.94
2022-12-09T23:15:28.104Z,101429.00
2022-12-09T23:18:14.927Z,101435.03
2022-12-09T23:21:01.673Z,101434.16
2022-12-09T23:23:48.450Z,101431.53
2022-12-09T23:26:38.032Z,101434.13
2022-12-09T23:29:27.382Z,101429.78
2022-12-09T23:32:14.145Z,101427.13
2022-12-09T23:35:05.850Z,101429.69
2022-12-09T23:37:54.188Z,101427.97
2022-12-09T23:40:41.197Z,101343.25
2022-12-09T23:43:27.945Z,101428.78
2022-12-09T23:46:15.930Z,101434.84
2022-12-09T23:49:04.822Z,101436.53
2022-12-09T23:51:53.318Z,101435.66
2022-12-09T23:54:40.089Z,101395.47
2022-12-09T23:57:26.829Z,101443.50
